createdAt,value
2022-10-06T00:00:32.768Z,15.60
2022-10-06T00:02:59.279Z,15.60
2022-10-06T00:05:26.132Z,15.60
2022-10-06T00:07:52.595Z,15.50
2022-10-06T00:10:19.026Z,15.50
2022-10-06T00:12:46.760Z,15.40
2022-10-06T00:15:14.446Z,15.40
2022-10-06T00:17:41.519Z,15.40
2022-10-06T00:20:09.091Z,15.40
2022-10-06T00:22:40.122Z,15.40
2022-10-06T00:25:07.018Z,15.40
2022-10-06T00:27:34.141Z,15.40
2022-10-06T00:30:00.536Z,15.40
2022-10-06T00:32:26.982Z,15.40
2022-10-06T00:34:54.046Z,15.30
2022-10-06T00:37:20.467Z,15.40
2022-10-06T00:39:46.915Z,15.30
2022-10-06T00:42:22.104Z,15.30
2022-10-06T00:44:49.162Z,15.30
2022-10-06T00:47:15.696Z,15.30
2022-10-06T00:49:43.752Z,15.30
2022-10-06T00:52:11.742Z,15.30
2022-10-06T00:54:38.783Z,15.30
2022-10-06T00:57:05.503Z,15.30
2022-10-06T00:59:32.241Z,15.20
2022-10-06T01:02:09.172Z,15.20
2022-10-06T01:04:36.945Z,15.20
2022-10-06T01:07:03.644Z,15.20
2022-10-06T01:09:30.873Z,15.20
2022-10-06T01:11:59.707Z,15.20
2022-10-06T01:14:26.678Z,15.20
2022-10-06T01:16:59.598Z,15.20
2022-10-06T01:19:29.071Z,15.10
2022-10-06T01:21:57.319Z,15.10
2022-10-06T01:24:23.749Z,15.10
2022-10-06T01:26:51.862Z,15.10
2022-10-06T01:29:18.802Z,15.10
2022-10-06T01:31:45.286Z,15.00
2022-10-06T01:34:11.823Z,15.00
2022-10-06T01:36:39.616Z,15.00
2022-10-06T01:39:05.994Z,15.10
2022-10-06T01:41:34.023Z,15.00
2022-10-06T01:44:00.621Z,15.00
2022-10-06T01:46:28.651Z,15.00
2022-10-06T01:48:55.493Z,15.00
2022-10-06T01:51:21.864Z,15.00
2022-10-06T01:53:48.308Z,14.90
2022-10-06T01:56:14.761Z,15.00
2022-10-06T01:58:41.206Z,14.90
2022-10-06T02:01:08.282Z,14.90
2022-10-06T02:03:35.623Z,14.90
2022-10-06T02:06:02.329Z,14.90
2022-10-06T02:08:29.072Z,14.90
2022-10-06T02:10:55.847Z,14.90
2022-10-06T02:13:25.835Z,14.90
2022-10-06T02:15:55.380Z,14.90
2022-10-06T02:18:21.844Z,14.90
2022-10-06T02:20:48.275Z,14.80
2022-10-06T02:23:14.699Z,14.80
2022-10-06T02:25:41.120Z,14.80
2022-10-06T02:28:07.601Z,14.80
2022-10-06T02:30:34.648Z,14.80
2022-10-06T02:33:01.084Z,14.80
2022-10-06T02:35:27.917Z,14.80
2022-10-06T02:37:54.349Z,14.80
2022-10-06T02:40:20.799Z,14.80
2022-10-06T02:42:47.906Z,14.70
2022-10-06T02:45:14.418Z,14.70
2022-10-06T02:47:41.471Z,14.70
2022-10-06T02:50:08.141Z,14.70
2022-10-06T02:52:35.703Z,14.70
2022-10-06T02:55:04.213Z,14.70
2022-10-06T02:57:30.933Z,14.70
2022-10-06T02:59:57.381Z,14.60
2022-10-06T03:02:23.942Z,14.60
2022-10-06T03:04:50.500Z,14.60
2022-10-06T03:07:17.013Z,14.60
2022-10-06T03:09:43.393Z,14.60
2022-10-06T03:12:09.837Z,14.60
2022-10-06T03:14:36.306Z,14.60
2022-10-06T03:17:02.805Z,14.60
2022-10-06T03:19:29.258Z,14.50
2022-10-06T03:21:55.641Z,14.50
2022-10-06T03:24:22.141Z,14.50
2022-10-06T03:26:48.581Z,14.50
2022-10-06T03:29:16.356Z,14.50
2022-10-06T03:31:43.429Z,14.50
2022-10-06T03:34:10.122Z,14.50
2022-10-06T03:36:36.985Z,14.50
2022-10-06T03:39:04.357Z,14.50
2022-10-06T03:41:32.090Z,14.50
2022-10-06T03:43:59.111Z,14.50
2022-10-06T03:46:27.160Z,14.50
2022-10-06T03:48:53.848Z,14.40
2022-10-06T03:51:21.999Z,14.40
2022-10-06T03:53:50.077Z,14.40
2022-10-06T03:56:18.075Z,14.40
2022-10-06T03:58:55.219Z,14.40
2022-10-06T04:01:26.196Z,14.40
2022-10-06T04:03:54.271Z,14.40
2022-10-06T04:06:20.863Z,14.40
2022-10-06T04:08:48.455Z,14.40
2022-10-06T04:11:16.224Z,14.40
2022-10-06T04:13:43.289Z,14.30
2022-10-06T04:16:13.826Z,14.30
2022-10-06T04:18:40.945Z,14.30
2022-10-06T04:21:07.559Z,14.30
2022-10-06T04:23:34.751Z,14.30
2022-10-06T04:26:01.330Z,14.30
2022-10-06T04:28:28.104Z,14.30
2022-10-06T04:30:58.918Z,14.20
2022-10-06T04:33:25.520Z,14.20
2022-10-06T04:36:02.241Z,14.30
2022-10-06T04:38:29.950Z,14.20
2022-10-06T04:40:57.462Z,14.20
2022-10-06T04:43:24.879Z,14.20
2022-10-06T04:45:58.915Z,14.20
2022-10-06T04:48:26.922Z,14.10
2022-10-06T04:50:54.698Z,14.10
2022-10-06T04:53:21.127Z,14.10
2022-10-06T04:55:47.569Z,14.10
2022-10-06T04:58:14.011Z,14.10
2022-10-06T05:00:41.115Z,14.10
2022-10-06T05:03:07.603Z,14.10
2022-10-06T05:05:34.047Z,14.10
2022-10-06T05:08:00.423Z,14.00
2022-10-06T05:10:27.508Z,14.00
2022-10-06T05:12:53.897Z,14.00
2022-10-06T05:15:20.530Z,14.00
2022-10-06T05:17:47.054Z,14.00
2022-10-06T05:20:13.575Z,14.00
2022-10-06T05:22:40.016Z,14.00
2022-10-06T05:25:06.577Z,13.90
2022-10-06T05:27:32.978Z,13.90
2022-10-06T05:29:59.501Z,13.90
2022-10-06T05:32:25.932Z,13.90
2022-10-06T05:34:52.360Z,13.90
2022-10-06T05:37:18.959Z,13.90
2022-10-06T05:39:46.702Z,13.80
2022-10-06T05:42:13.144Z,13.80
2022-10-06T05:44:39.614Z,13.80
2022-10-06T05:47:06.049Z,13.80
2022-10-06T05:49:32.441Z,13.80
2022-10-06T05:51:58.908Z,13.80
2022-10-06T05:54:25.386Z,13.80
2022-10-06T05:56:51.801Z,13.80
2022-10-06T05:59:18.287Z,13.70
2022-10-06T06:01:44.884Z,13.70
2022-10-06T06:04:12.347Z,13.70
2022-10-06T06:06:45.446Z,13.60
2022-10-06T06:09:13.153Z,13.60
2022-10-06T06:11:40.702Z,13.60
2022-10-06T06:14:11.548Z,13.60
2022-10-06T06:16:39.074Z,13.60
2022-10-06T06:19:06.426Z,13.60
2022-10-06T06:21:33.362Z,13.60
2022-10-06T06:23:59.926Z,13.50
2022-10-06T06:26:30.772Z,13.50
2022-10-06T06:29:05.153Z,13.50
2022-10-06T06:31:33.601Z,13.50
2022-10-06T06:34:00.547Z,13.50
2022-10-06T06:36:28.794Z,13.50
2022-10-06T06:38:56.155Z,13.40
2022-10-06T06:41:23.885Z,13.40
2022-10-06T06:43:50.615Z,13.40
2022-10-06T06:46:18.089Z,13.40
2022-10-06T06:48:45.026Z,13.40
2022-10-06T06:51:12.083Z,13.40
2022-10-06T06:53:38.875Z,13.40
2022-10-06T06:56:06.044Z,13.30
2022-10-06T06:58:33.068Z,13.30
2022-10-06T07:01:06.608Z,13.30
2022-10-06T07:03:56.197Z,13.30
2022-10-06T07:06:19.549Z,13.30
2022-10-06T07:08:46.943Z,13.30
2022-10-06T07:11:13.437Z,13.30
2022-10-06T07:13:40.557Z,13.30
2022-10-06T07:16:25.635Z,13.30
2022-10-06T07:19:10.364Z,13.30
2022-10-06T07:21:55.301Z,13.30
2022-10-06T07:24:40.745Z,13.40
2022-10-06T07:27:07.241Z,13.40
2022-10-06T07:29:33.684Z,13.50
2022-10-06T07:32:00.098Z,13.50
2022-10-06T07:34:27.000Z,13.60
2022-10-06T07:36:54.156Z,13.60
2022-10-06T07:39:20.670Z,13.60
2022-10-06T07:41:47.134Z,13.70
2022-10-06T07:44:13.553Z,13.80
2022-10-06T07:46:39.988Z,13.80
2022-10-06T07:49:06.430Z,13.80
2022-10-06T07:51:32.921Z,13.80
2022-10-06T07:53:59.447Z,13.90
2022-10-06T07:56:25.912Z,13.90
2022-10-06T07:58:52.348Z,14.00
2022-10-06T08:01:19.490Z,14.00
2022-10-06T08:03:48.475Z,14.00
2022-10-06T08:06:15.900Z,14.20
2022-10-06T08:08:43.384Z,14.20
2022-10-06T08:11:10.942Z,14.30
2022-10-06T08:13:38.807Z,14.30
2022-10-06T08:16:05.875Z,14.40
2022-10-06T08:18:46.019Z,14.40
2022-10-06T08:21:14.768Z,14.50
2022-10-06T08:23:42.435Z,14.50
2022-10-06T08:26:12.460Z,14.60
2022-10-06T08:28:39.373Z,14.70
2022-10-06T08:31:07.216Z,14.90
2022-10-06T08:33:35.975Z,14.90
2022-10-06T08:36:12.287Z,15.10
2022-10-06T08:38:38.752Z,15.00
2022-10-06T08:41:34.388Z,15.00
2022-10-06T08:44:07.684Z,15.30
2022-10-06T08:46:41.542Z,15.30
2022-10-06T08:49:14.306Z,15.50
2022-10-06T08:51:44.451Z,15.50
2022-10-06T08:54:12.867Z,15.30
2022-10-06T08:56:54.433Z,15.40
2022-10-06T08:59:21.643Z,15.40
2022-10-06T09:01:49.417Z,15.60
2022-10-06T09:04:23.195Z,15.70
2022-10-06T09:07:06.681Z,15.70
2022-10-06T09:09:39.815Z,15.70
2022-10-06T09:12:06.863Z,15.70
2022-10-06T09:14:53.036Z,15.80
2022-10-06T09:17:26.205Z,16.00
2022-10-06T09:19:55.098Z,16.20
2022-10-06T09:22:22.451Z,16.20
2022-10-06T09:24:51.436Z,16.40
2022-10-06T09:27:23.149Z,16.40
2022-10-06T09:29:51.538Z,16.30
2022-10-06T09:32:19.006Z,16.40
2022-10-06T09:34:50.117Z,16.30
2022-10-06T09:37:16.609Z,16.50
2022-10-06T09:39:44.313Z,16.50
2022-10-06T09:42:35.810Z,16.30
2022-10-06T09:45:04.890Z,16.60
2022-10-06T09:47:35.832Z,16.50
2022-10-06T09:50:05.960Z,16.50
2022-10-06T09:52:32.410Z,16.50
2022-10-06T09:55:19.098Z,16.70
2022-10-06T09:57:53.278Z,16.50
2022-10-06T10:00:29.438Z,16.70
2022-10-06T10:03:01.276Z,17.10
2022-10-06T10:05:29.416Z,16.90
2022-10-06T10:08:03.348Z,16.80
2022-10-06T10:10:30.278Z,16.60
2022-10-06T10:12:58.065Z,16.60
2022-10-06T10:15:25.799Z,17.00
2022-10-06T10:18:12.511Z,17.00
2022-10-06T10:20:40.236Z,17.40
2022-10-06T10:23:18.385Z,17.20
2022-10-06T10:25:50.004Z,17.00
2022-10-06T10:28:17.478Z,17.20
2022-10-06T10:30:52.680Z,17.40
2022-10-06T10:33:26.779Z,17.60
2022-10-06T10:35:54.195Z,17.60
2022-10-06T10:38:24.767Z,17.30
2022-10-06T10:40:54.064Z,17.30
2022-10-06T10:43:23.347Z,17.30
2022-10-06T10:45:51.360Z,17.70
2022-10-06T10:48:36.609Z,18.00
2022-10-06T10:51:11.362Z,18.00
2022-10-06T10:53:42.641Z,17.90
2022-10-06T10:56:11.025Z,18.00
2022-10-06T10:58:39.403Z,18.20
2022-10-06T11:01:22.535Z,18.40
2022-10-06T11:03:56.583Z,18.60
2022-10-06T11:06:29.819Z,18.70
2022-10-06T11:08:56.234Z,18.70
2022-10-06T11:11:38.064Z,18.60
2022-10-06T11:14:08.749Z,18.50
2022-10-06T11:16:37.166Z,18.40
2022-10-06T11:19:15.812Z,18.50
2022-10-06T11:22:02.455Z,18.80
2022-10-06T11:24:35.176Z,19.10
2022-10-06T11:27:05.094Z,18.90
2022-10-06T11:29:44.820Z,18.90
2022-10-06T11:32:26.914Z,19.00
2022-10-06T11:34:53.544Z,19.10
2022-10-06T11:37:35.068Z,19.20
2022-10-06T11:40:16.468Z,19.30
2022-10-06T11:43:01.691Z,19.00
2022-10-06T11:45:38.210Z,19.30
2022-10-06T11:48:07.430Z,19.30
2022-10-06T11:50:33.928Z,19.30
2022-10-06T11:53:00.724Z,19.60
2022-10-06T11:55:28.933Z,19.60
2022-10-06T11:57:58.121Z,19.70
2022-10-06T12:00:24.480Z,19.60
2022-10-06T12:02:51.056Z,19.70
2022-10-06T12:05:54.825Z,19.50
2022-10-06T12:08:09.457Z,19.50
2022-10-06T12:10:35.952Z,19.60
2022-10-06T12:13:51.332Z,19.60
2022-10-06T12:19:03.859Z,19.60
2022-10-06T12:21:30.267Z,19.80
2022-10-06T12:24:06.319Z,20.00
2022-10-06T12:26:44.701Z,20.10
2022-10-06T12:29:30.046Z,20.10
2022-10-06T12:32:14.905Z,20.20
2022-10-06T12:34:41.923Z,20.10
2022-10-06T12:37:26.929Z,20.10
2022-10-06T12:39:53.388Z,20.10
2022-10-06T12:42:20.473Z,20.30
2022-10-06T12:44:49.263Z,20.40
2022-10-06T12:47:19.105Z,20.40
2022-10-06T12:49:47.283Z,20.30
2022-10-06T12:52:33.944Z,20.40
2022-10-06T12:55:19.080Z,20.50
2022-10-06T12:57:50.748Z,20.40
2022-10-06T13:00:33.144Z,20.50
2022-10-06T13:03:01.128Z,20.50
2022-10-06T13:05:28.107Z,20.50
2022-10-06T13:08:05.041Z,20.50
2022-10-06T13:10:32.614Z,20.40
2022-10-06T13:12:59.796Z,20.60
2022-10-06T13:15:33.400Z,20.60
2022-10-06T13:18:04.183Z,20.70
2022-10-06T13:20:46.202Z,20.50
2022-10-06T13:23:26.339Z,20.50
2022-10-06T13:26:16.387Z,20.50
2022-10-06T13:28:42.826Z,20.60
2022-10-06T13:31:15.263Z,20.60
2022-10-06T13:33:43.091Z,20.70
2022-10-06T13:36:10.909Z,20.60
2022-10-06T13:38:37.948Z,20.80
2022-10-06T13:41:04.498Z,20.80
2022-10-06T13:43:34.159Z,20.80
2022-10-06T13:46:07.794Z,20.70
2022-10-06T13:48:34.545Z,20.70
2022-10-06T13:51:03.375Z,20.80
2022-10-06T13:53:31.563Z,20.90
2022-10-06T13:55:58.550Z,20.80
2022-10-06T13:58:30.036Z,20.90
2022-10-06T14:01:01.308Z,20.90
2022-10-06T14:06:18.099Z,21.00
2022-10-06T14:08:46.338Z,20.90
2022-10-06T14:11:12.803Z,20.90
2022-10-06T14:13:53.895Z,20.90
2022-10-06T14:16:21.936Z,20.90
2022-10-06T14:18:58.385Z,20.90
2022-10-06T14:21:37.146Z,20.80
2022-10-06T14:24:15.927Z,20.90
2022-10-06T14:26:46.494Z,20.90
2022-10-06T14:29:14.185Z,20.80
2022-10-06T14:31:40.780Z,20.90
2022-10-06T14:34:14.372Z,20.90
2022-10-06T14:36:41.962Z,21.00
2022-10-06T14:39:10.830Z,20.90
2022-10-06T14:41:37.285Z,20.90
2022-10-06T14:44:09.104Z,20.90
2022-10-06T14:46:35.987Z,21.00
2022-10-06T14:49:07.585Z,21.00
2022-10-06T14:51:36.543Z,21.00
2022-10-06T14:54:03.792Z,21.00
2022-10-06T14:56:31.642Z,20.90
2022-10-06T14:59:04.239Z,21.00
2022-10-06T15:01:31.474Z,21.00
2022-10-06T15:03:58.924Z,21.00
2022-10-06T15:06:44.225Z,20.90
2022-10-06T15:09:11.085Z,20.90
2022-10-06T15:11:39.601Z,21.00
2022-10-06T15:14:06.426Z,20.90
2022-10-06T15:16:33.761Z,20.90
2022-10-06T15:19:00.746Z,21.00
2022-10-06T15:21:27.562Z,21.00
2022-10-06T15:23:57.729Z,21.00
2022-10-06T15:26:43.207Z,20.90
2022-10-06T15:29:09.748Z,20.90
2022-10-06T15:31:40.282Z,20.90
2022-10-06T15:34:07.959Z,20.90
2022-10-06T15:36:36.372Z,20.90
2022-10-06T15:39:13.263Z,20.90
2022-10-06T15:41:42.857Z,20.90
2022-10-06T15:44:09.846Z,20.80
2022-10-06T15:46:40.871Z,20.70
2022-10-06T15:49:08.993Z,20.80
2022-10-06T15:51:42.776Z,20.70
2022-10-06T15:54:10.949Z,20.70
2022-10-06T15:56:38.187Z,20.70
2022-10-06T15:59:05.192Z,20.70
2022-10-06T16:01:34.757Z,20.70
2022-10-06T16:04:08.340Z,20.80
2022-10-06T16:06:49.340Z,20.70
2022-10-06T16:09:19.055Z,20.70
2022-10-06T16:11:47.016Z,20.70
2022-10-06T16:14:14.082Z,20.70
2022-10-06T16:16:43.672Z,20.70
2022-10-06T16:19:10.863Z,20.70
2022-10-06T16:21:37.758Z,20.70
2022-10-06T16:24:04.275Z,20.60
2022-10-06T16:26:31.071Z,20.60
2022-10-06T16:28:57.496Z,20.60
2022-10-06T16:31:24.052Z,20.60
2022-10-06T16:33:50.682Z,20.50
2022-10-06T16:36:17.739Z,20.50
2022-10-06T16:38:44.247Z,20.50
2022-10-06T16:41:10.866Z,20.50
2022-10-06T16:43:38.543Z,20.40
2022-10-06T16:46:06.435Z,20.40
2022-10-06T16:48:34.630Z,20.40
2022-10-06T16:51:03.978Z,20.40
2022-10-06T16:53:34.124Z,20.40
2022-10-06T16:56:00.620Z,20.30
2022-10-06T16:58:27.079Z,20.30
2022-10-06T17:00:57.146Z,20.30
2022-10-06T17:03:23.643Z,20.30
2022-10-06T17:05:50.142Z,20.20
2022-10-06T17:08:16.617Z,20.20
2022-10-06T17:10:43.111Z,20.20
2022-10-06T17:13:09.570Z,20.10
2022-10-06T17:15:36.097Z,20.10
2022-10-06T17:18:02.561Z,20.10
2022-10-06T17:20:29.024Z,20.00
2022-10-06T17:22:55.452Z,20.00
2022-10-06T17:25:22.314Z,20.00
2022-10-06T17:27:48.772Z,19.90
2022-10-06T17:30:16.838Z,19.90
2022-10-06T17:32:44.560Z,19.80
2022-10-06T17:35:10.963Z,19.80
2022-10-06T17:37:40.297Z,19.80
2022-10-06T17:40:08.320Z,19.70
2022-10-06T17:42:35.655Z,19.70
2022-10-06T17:45:02.241Z,19.70
2022-10-06T17:47:29.635Z,19.60
2022-10-06T17:49:57.008Z,19.60
2022-10-06T17:52:24.476Z,19.50
2022-10-06T17:54:52.062Z,19.50
2022-10-06T17:57:19.810Z,19.50
2022-10-06T17:59:46.248Z,19.40
2022-10-06T18:02:13.685Z,19.40
2022-10-06T18:04:40.309Z,19.40
2022-10-06T18:07:10.111Z,19.30
2022-10-06T18:09:36.652Z,19.30
2022-10-06T18:12:03.256Z,19.20
2022-10-06T18:14:33.351Z,19.20
2022-10-06T18:17:01.059Z,19.20
2022-10-06T18:19:29.988Z,19.10
2022-10-06T18:22:01.771Z,19.10
2022-10-06T18:24:29.651Z,19.10
2022-10-06T18:26:56.761Z,19.00
2022-10-06T18:29:24.575Z,19.00
2022-10-06T18:31:52.041Z,19.00
2022-10-06T18:36:10.371Z,18.90
2022-10-06T18:37:05.126Z,18.90
2022-10-06T18:39:33.447Z,18.80
2022-10-06T18:42:02.930Z,18.80
2022-10-06T18:44:48.370Z,18.80
2022-10-06T18:47:33.672Z,18.80
2022-10-06T18:50:00.148Z,18.70
2022-10-06T18:52:26.579Z,18.70
2022-10-06T18:54:53.029Z,18.60
2022-10-06T18:57:22.609Z,18.60
2022-10-06T18:59:51.752Z,18.60
2022-10-06T19:02:18.310Z,18.50
2022-10-06T19:04:44.813Z,18.50
2022-10-06T19:07:11.245Z,18.50
2022-10-06T19:09:38.441Z,18.40
2022-10-06T19:12:07.080Z,18.40
2022-10-06T19:14:42.831Z,18.40
2022-10-06T19:17:13.094Z,18.30
2022-10-06T19:19:39.953Z,18.30
2022-10-06T19:22:06.795Z,18.30
2022-10-06T19:24:35.092Z,18.30
2022-10-06T19:27:05.045Z,18.20
2022-10-06T19:29:36.914Z,18.20
2022-10-06T19:32:04.657Z,18.20
2022-10-06T19:34:32.763Z,18.10
2022-10-06T19:36:59.657Z,18.10
2022-10-06T19:39:28.111Z,18.10
2022-10-06T19:42:13.226Z,18.00
2022-10-06T19:44:43.025Z,18.00
2022-10-06T19:47:11.221Z,18.00
2022-10-06T19:49:38.267Z,17.90
2022-10-06T19:52:06.218Z,17.90
2022-10-06T19:54:32.740Z,17.90
2022-10-06T19:57:03.096Z,17.90
2022-10-06T19:59:31.842Z,17.80
2022-10-06T20:01:58.280Z,17.80
2022-10-06T20:04:25.467Z,17.80
2022-10-06T20:06:52.264Z,17.70
2022-10-06T20:09:20.091Z,17.70
2022-10-06T20:11:48.207Z,17.70
2022-10-06T20:14:20.948Z,17.70
2022-10-06T20:16:49.191Z,17.60
2022-10-06T20:19:19.512Z,17.60
2022-10-06T20:21:46.493Z,17.60
2022-10-06T20:24:31.849Z,17.50
2022-10-06T20:26:58.313Z,17.50
2022-10-06T20:29:25.891Z,17.50
2022-10-06T20:31:53.831Z,17.50
2022-10-06T20:34:21.558Z,17.40
2022-10-06T20:36:51.877Z,17.40
2022-10-06T20:39:40.526Z,17.40
2022-10-06T20:42:10.721Z,17.40
2022-10-06T20:44:41.288Z,17.30
2022-10-06T20:47:08.943Z,17.30
2022-10-06T20:49:35.437Z,17.30
2022-10-06T20:52:03.228Z,17.30
2022-10-06T20:54:35.016Z,17.20
2022-10-06T20:57:02.901Z,17.20
2022-10-06T20:59:30.040Z,17.20
2022-10-06T21:02:00.343Z,17.20
2022-10-06T21:04:30.236Z,17.10
2022-10-06T21:06:57.250Z,17.10
2022-10-06T21:09:24.525Z,17.00
2022-10-06T21:11:51.089Z,17.00
2022-10-06T21:14:18.259Z,17.00
2022-10-06T21:16:45.376Z,17.00
2022-10-06T21:19:14.173Z,17.00
2022-10-06T21:21:41.152Z,17.00
2022-10-06T21:24:10.298Z,16.90
2022-10-06T21:26:38.697Z,16.90
2022-10-06T21:29:05.144Z,16.90
2022-10-06T21:31:32.175Z,16.90
2022-10-06T21:33:59.244Z,16.80
2022-10-06T21:36:26.492Z,16.80
2022-10-06T21:38:56.850Z,16.80
2022-10-06T21:41:31.873Z,16.80
2022-10-06T21:44:04.557Z,16.70
2022-10-06T21:46:32.753Z,16.70
2022-10-06T21:48:59.734Z,16.70
2022-10-06T21:51:27.545Z,16.70
2022-10-06T21:53:56.052Z,16.60
2022-10-06T21:56:23.014Z,16.60
2022-10-06T21:58:52.981Z,16.60
2022-10-06T22:01:21.290Z,16.60
2022-10-06T22:03:48.383Z,16.60
2022-10-06T22:06:19.058Z,16.50
2022-10-06T22:08:46.112Z,16.50
2022-10-06T22:11:14.149Z,16.50
2022-10-06T22:13:41.279Z,16.50
2022-10-06T22:16:09.141Z,16.50
2022-10-06T22:18:36.513Z,16.40
2022-10-06T22:21:32.428Z,16.40
2022-10-06T22:23:59.949Z,16.40
2022-10-06T22:26:27.046Z,16.30
2022-10-06T22:28:54.277Z,16.30
2022-10-06T22:31:25.701Z,16.30
2022-10-06T22:33:57.082Z,16.30
2022-10-06T22:36:23.854Z,16.30
2022-10-06T22:38:50.414Z,16.20
2022-10-06T22:41:17.056Z,16.20
2022-10-06T22:43:43.515Z,16.20
2022-10-06T22:46:10.603Z,16.20
2022-10-06T22:48:37.213Z,16.20
2022-10-06T22:51:03.743Z,16.20
2022-10-06T22:53:31.278Z,16.10
2022-10-06T22:55:58.344Z,16.10
2022-10-06T22:58:24.907Z,16.10
2022-10-06T23:00:51.481Z,16.10
2022-10-06T23:03:18.415Z,16.10
2022-10-06T23:05:57.844Z,16.10
2022-10-06T23:08:24.780Z,16.00
2022-10-06T23:10:51.364Z,16.00
2022-10-06T23:13:17.930Z,16.00
2022-10-06T23:15:44.418Z,16.00
2022-10-06T23:18:10.916Z,16.00
2022-10-06T23:20:37.333Z,16.00
2022-10-06T23:23:03.827Z,15.90
2022-10-06T23:25:30.276Z,15.90
2022-10-06T23:27:56.770Z,15.90
2022-10-06T23:30:23.242Z,15.90
2022-10-06T23:32:49.670Z,15.90
2022-10-06T23:35:16.120Z,15.80
2022-10-06T23:37:42.727Z,15.80
2022-10-06T23:40:09.676Z,15.80
2022-10-06T23:42:36.092Z,15.80
2022-10-06T23:45:02.562Z,15.80
2022-10-06T23:47:28.966Z,15.80
2022-10-06T23:49:55.384Z,15.80
2022-10-06T23:52:21.822Z,15.70
2022-10-06T23:54:48.677Z,15.70
2022-10-06T23:57:15.143Z,15.70
2022-10-06T23:59:41.528Z,15.70
